sensor_id;sensor_type;location;lat;lon;timestamp;P1;durP1;ratioP1;P2;durP2;ratioP2
20988;SDS011;10653;47.052;15.410;2023-03-01T00:01:36;19.17;;;16.65;;
20988;SDS011;10653;47.052;15.410;2023-03-01T00:04:02;18.73;;;16.73;;
20988;SDS011;10653;47.052;15.410;2023-03-01T00:06:28;20.50;;;16.00;;
20988;SDS011;10653;47.052;15.410;2023-03-01T00:08:54;20.83;;;16.70;;
20988;SDS011;10653;47.052;15.410;2023-03-01T00:11:25;46.15;;;26.70;;
20988;SDS011;10653;47.052;15.410;2023-03-01T00:13:52;34.70;;;25.13;;
20988;SDS011;10653;47.052;15.410;2023-03-01T00:16:20;29.70;;;23.60;;
20988;SDS011;10653;47.052;15.410;2023-03-01T00:18:46;26.88;;;20.75;;
20988;SDS011;10653;47.052;15.410;2023-03-01T00:21:12;27.52;;;18.65;;
20988;SDS011;10653;47.052;15.410;2023-03-01T00:23:38;25.88;;;21.98;;
20988;SDS011;10653;47.052;15.410;2023-03-01T00:26:08;25.73;;;19.83;;
20988;SDS011;10653;47.052;15.410;2023-03-01T00:28:34;28.13;;;21.17;;
20988;SDS011;10653;47.052;15.410;2023-03-01T00:31:04;24.98;;;19.13;;
20988;SDS011;10653;47.052;15.410;2023-03-01T00:33:31;23.23;;;19.33;;
20988;SDS011;10653;47.052;15.410;2023-03-01T00:35:58;27.85;;;19.58;;
20988;SDS011;10653;47.052;15.410;2023-03-01T00:38:24;24.05;;;19.23;;
20988;SDS011;10653;47.052;15.410;2023-03-01T00:40:50;24.00;;;18.95;;
20988;SDS011;10653;47.052;15.410;2023-03-01T00:43:17;21.52;;;18.20;;
20988;SDS011;10653;47.052;15.410;2023-03-01T00:45:43;23.83;;;18.45;;
20988;SDS011;10653;47.052;15.410;2023-03-01T00:48:09;20.40;;;17.47;;
20988;SDS011;10653;47.052;15.410;2023-03-01T00:50:35;22.25;;;17.15;;
20988;SDS011;10653;47.052;15.410;2023-03-01T00:53:01;20.00;;;17.92;;
20988;SDS011;10653;47.052;15.410;2023-03-01T00:55:28;20.63;;;16.95;;
20988;SDS011;10653;47.052;15.410;2023-03-01T00:57:54;20.05;;;17.30;;
20988;SDS011;10653;47.052;15.410;2023-03-01T01:00:20;21.15;;;17.17;;
20988;SDS011;10653;47.052;15.410;2023-03-01T01:02:46;20.75;;;15.90;;
20988;SDS011;10653;47.052;15.410;2023-03-01T01:05:12;19.13;;;15.82;;
20988;SDS011;10653;47.052;15.410;2023-03-01T01:07:38;20.00;;;14.50;;
20988;SDS011;10653;47.052;15.410;2023-03-01T01:10:04;25.05;;;16.13;;
20988;SDS011;10653;47.052;15.410;2023-03-01T01:12:31;20.48;;;16.52;;
20988;SDS011;10653;47.052;15.410;2023-03-01T01:14:57;17.50;;;14.98;;
20988;SDS011;10653;47.052;15.410;2023-03-01T01:17:23;26.48;;;17.13;;
20988;SDS011;10653;47.052;15.410;2023-03-01T01:19:49;17.60;;;15.80;;
20988;SDS011;10653;47.052;15.410;2023-03-01T01:22:15;20.48;;;16.33;;
20988;SDS011;10653;47.052;15.410;2023-03-01T01:24:41;21.50;;;17.15;;
20988;SDS011;10653;47.052;15.410;2023-03-01T01:27:07;19.90;;;16.88;;
20988;SDS011;10653;47.052;15.410;2023-03-01T01:29:33;20.30;;;17.77;;
20988;SDS011;10653;47.052;15.410;2023-03-01T01:31:59;20.40;;;17.88;;
20988;SDS011;10653;47.052;15.410;2023-03-01T01:34:25;21.15;;;16.75;;
20988;SDS011;10653;47.052;15.410;2023-03-01T01:36:52;19.17;;;16.87;;
20988;SDS011;10653;47.052;15.410;2023-03-01T01:39:19;22.55;;;17.80;;
20988;SDS011;10653;47.052;15.410;2023-03-01T01:41:45;21.35;;;18.80;;
20988;SDS011;10653;47.052;15.410;2023-03-01T01:46:38;21.88;;;17.95;;
20988;SDS011;10653;47.052;15.410;2023-03-01T01:49:22;26.17;;;19.05;;
20988;SDS011;10653;47.052;15.410;2023-03-01T01:51:49;22.92;;;18.75;;
20988;SDS011;10653;47.052;15.410;2023-03-01T01:54:27;18.60;;;15.93;;
20988;SDS011;10653;47.052;15.410;2023-03-01T01:56:56;19.20;;;16.40;;
20988;SDS011;10653;47.052;15.410;2023-03-01T01:59:23;18.42;;;16.35;;
20988;SDS011;10653;47.052;15.410;2023-03-01T02:01:53;18.65;;;16.58;;
20988;SDS011;10653;47.052;15.410;2023-03-01T02:04:19;22.52;;;16.85;;
20988;SDS011;10653;47.052;15.410;2023-03-01T02:06:55;19.67;;;17.08;;
20988;SDS011;10653;47.052;15.410;2023-03-01T02:09:23;20.45;;;16.55;;
20988;SDS011;10653;47.052;15.410;2023-03-01T02:11:50;20.65;;;16.15;;
20988;SDS011;10653;47.052;15.410;2023-03-01T02:14:17;17.52;;;15.70;;
20988;SDS011;10653;47.052;15.410;2023-03-01T02:16:43;18.27;;;15.55;;
20988;SDS011;10653;47.052;15.410;2023-03-01T02:19:10;21.52;;;17.10;;
20988;SDS011;10653;47.052;15.410;2023-03-01T02:26:57;20.10;;;16.63;;
20988;SDS011;10653;47.052;15.410;2023-03-01T02:29:24;18.55;;;15.48;;
20988;SDS011;10653;47.052;15.410;2023-03-01T02:31:51;18.55;;;15.57;;
20988;SDS011;10653;47.052;15.410;2023-03-01T02:34:20;17.83;;;15.15;;
20988;SDS011;10653;47.052;15.410;2023-03-01T02:36:47;22.48;;;17.25;;
20988;SDS011;10653;47.052;15.410;2023-03-01T02:39:15;20.58;;;17.48;;
20988;SDS011;10653;47.052;15.410;2023-03-01T02:41:43;21.70;;;17.48;;
20988;SDS011;10653;47.052;15.410;2023-03-01T02:44:10;20.60;;;17.58;;
20988;SDS011;10653;47.052;15.410;2023-03-01T02:46:41;21.70;;;17.50;;
20988;SDS011;10653;47.052;15.410;2023-03-01T02:49:18;22.55;;;18.00;;
20988;SDS011;10653;47.052;15.410;2023-03-01T02:54:20;20.80;;;18.02;;
20988;SDS011;10653;47.052;15.410;2023-03-01T02:56:48;22.63;;;17.23;;
20988;SDS011;10653;47.052;15.410;2023-03-01T02:59:15;21.77;;;18.27;;
20988;SDS011;10653;47.052;15.410;2023-03-01T03:01:42;22.95;;;16.80;;
20988;SDS011;10653;47.052;15.410;2023-03-01T03:04:10;22.42;;;16.05;;
20988;SDS011;10653;47.052;15.410;2023-03-01T03:06:36;20.52;;;16.33;;
20988;SDS011;10653;47.052;15.410;2023-03-01T03:09:03;22.80;;;18.33;;
20988;SDS011;10653;47.052;15.410;2023-03-01T03:11:29;20.35;;;18.02;;
20988;SDS011;10653;47.052;15.410;2023-03-01T03:13:57;23.90;;;18.45;;
20988;SDS011;10653;47.052;15.410;2023-03-01T03:16:23;20.67;;;18.13;;
20988;SDS011;10653;47.052;15.410;2023-03-01T03:18:49;19.70;;;17.45;;
20988;SDS011;10653;47.052;15.410;2023-03-01T03:21:16;24.25;;;19.30;;
20988;SDS011;10653;47.052;15.410;2023-03-01T03:23:42;21.50;;;17.77;;
20988;SDS011;10653;47.052;15.410;2023-03-01T03:26:08;20.20;;;17.20;;
20988;SDS011;10653;47.052;15.410;2023-03-01T03:28:38;20.77;;;16.35;;
20988;SDS011;10653;47.052;15.410;2023-03-01T03:31:06;22.58;;;18.25;;
20988;SDS011;10653;47.052;15.410;2023-03-01T03:33:32;21.58;;;18.50;;
20988;SDS011;10653;47.052;15.410;2023-03-01T03:35:58;22.48;;;18.65;;
20988;SDS011;10653;47.052;15.410;2023-03-01T03:38:24;24.63;;;18.85;;
20988;SDS011;10653;47.052;15.410;2023-03-01T03:43:17;21.30;;;18.30;;
20988;SDS011;10653;47.052;15.410;2023-03-01T03:45:44;23.65;;;18.58;;
20988;SDS011;10653;47.052;15.410;2023-03-01T03:48:10;21.13;;;16.20;;
20988;SDS011;10653;47.052;15.410;2023-03-01T03:50:40;21.52;;;18.15;;
20988;SDS011;10653;47.052;15.410;2023-03-01T03:53:07;20.23;;;17.67;;
20988;SDS011;10653;47.052;15.410;2023-03-01T03:55:34;22.77;;;19.23;;
20988;SDS011;10653;47.052;15.410;2023-03-01T03:58:04;20.10;;;17.30;;
20988;SDS011;10653;47.052;15.410;2023-03-01T04:00:37;19.75;;;17.60;;
20988;SDS011;10653;47.052;15.410;2023-03-01T04:03:03;22.13;;;19.73;;
20988;SDS011;10653;47.052;15.410;2023-03-01T04:05:30;19.58;;;17.40;;
20988;SDS011;10653;47.052;15.410;2023-03-01T04:07:56;22.73;;;18.33;;
20988;SDS011;10653;47.052;15.410;2023-03-01T04:10:42;21.30;;;19.05;;
20988;SDS011;10653;47.052;15.410;2023-03-01T04:13:09;21.05;;;17.48;;
20988;SDS011;10653;47.052;15.410;2023-03-01T04:15:36;22.17;;;17.98;;
20988;SDS011;10653;47.052;15.410;2023-03-01T04:18:02;17.95;;;16.05;;
20988;SDS011;10653;47.052;15.410;2023-03-01T04:20:30;20.52;;;17.85;;
20988;SDS011;10653;47.052;15.410;2023-03-01T04:23:00;20.63;;;16.98;;
20988;SDS011;10653;47.052;15.410;2023-03-01T04:25:39;21.70;;;16.90;;
20988;SDS011;10653;47.052;15.410;2023-03-01T04:28:05;18.40;;;15.77;;
20988;SDS011;10653;47.052;15.410;2023-03-01T04:30:32;22.27;;;18.08;;
20988;SDS011;10653;47.052;15.410;2023-03-01T04:33:04;18.83;;;16.52;;
20988;SDS011;10653;47.052;15.410;2023-03-01T04:35:31;20.67;;;17.05;;
20988;SDS011;10653;47.052;15.410;2023-03-01T04:37:58;19.85;;;16.83;;
20988;SDS011;10653;47.052;15.410;2023-03-01T04:40:24;19.60;;;15.88;;
20988;SDS011;10653;47.052;15.410;2023-03-01T04:42:50;18.48;;;16.48;;
20988;SDS011;10653;47.052;15.410;2023-03-01T04:45:16;16.38;;;14.68;;
20988;SDS011;10653;47.052;15.410;2023-03-01T04:47:43;17.88;;;15.98;;
20988;SDS011;10653;47.052;15.410;2023-03-01T04:50:11;19.50;;;15.63;;
20988;SDS011;10653;47.052;15.410;2023-03-01T04:52:37;18.85;;;15.95;;
20988;SDS011;10653;47.052;15.410;2023-03-01T04:55:04;19.38;;;16.80;;
20988;SDS011;10653;47.052;15.410;2023-03-01T04:57:30;18.92;;;15.75;;
20988;SDS011;10653;47.052;15.410;2023-03-01T04:59:56;17.67;;;15.80;;
20988;SDS011;10653;47.052;15.410;2023-03-01T05:02:23;17.98;;;15.45;;
20988;SDS011;10653;47.052;15.410;2023-03-01T05:04:49;20.80;;;17.67;;
20988;SDS011;10653;47.052;15.410;2023-03-01T05:07:15;23.90;;;19.70;;
20988;SDS011;10653;47.052;15.410;2023-03-01T05:09:44;25.00;;;20.45;;
20988;SDS011;10653;47.052;15.410;2023-03-01T05:12:11;25.90;;;19.63;;
20988;SDS011;10653;47.052;15.410;2023-03-01T05:14:37;23.65;;;19.02;;
20988;SDS011;10653;47.052;15.410;2023-03-01T05:17:04;22.15;;;18.48;;
20988;SDS011;10653;47.052;15.410;2023-03-01T05:19:30;20.65;;;17.40;;
20988;SDS011;10653;47.052;15.410;2023-03-01T05:21:57;21.05;;;16.15;;
20988;SDS011;10653;47.052;15.410;2023-03-01T05:24:26;21.23;;;17.77;;
20988;SDS011;10653;47.052;15.410;2023-03-01T05:26:52;26.00;;;15.95;;
20988;SDS011;10653;47.052;15.410;2023-03-01T05:29:19;21.27;;;17.63;;
20988;SDS011;10653;47.052;15.410;2023-03-01T05:31:51;23.17;;;18.48;;
20988;SDS011;10653;47.052;15.410;2023-03-01T05:34:18;21.38;;;17.42;;
20988;SDS011;10653;47.052;15.410;2023-03-01T05:36:44;23.23;;;18.85;;
20988;SDS011;10653;47.052;15.410;2023-03-01T05:39:10;23.55;;;19.25;;
20988;SDS011;10653;47.052;15.410;2023-03-01T05:41:36;25.63;;;21.20;;
20988;SDS011;10653;47.052;15.410;2023-03-01T05:44:02;23.42;;;20.40;;
20988;SDS011;10653;47.052;15.410;2023-03-01T05:46:29;31.17;;;20.38;;
20988;SDS011;10653;47.052;15.410;2023-03-01T05:48:55;24.52;;;18.65;;
20988;SDS011;10653;47.052;15.410;2023-03-01T05:51:21;22.33;;;19.33;;
20988;SDS011;10653;47.052;15.410;2023-03-01T05:53:47;23.17;;;18.30;;
20988;SDS011;10653;47.052;15.410;2023-03-01T05:56:13;23.40;;;20.05;;
20988;SDS011;10653;47.052;15.410;2023-03-01T05:58:39;31.52;;;20.38;;
20988;SDS011;10653;47.052;15.410;2023-03-01T06:01:05;22.95;;;19.55;;
20988;SDS011;10653;47.052;15.410;2023-03-01T06:03:36;24.48;;;19.95;;
20988;SDS011;10653;47.052;15.410;2023-03-01T06:06:02;23.10;;;18.95;;
20988;SDS011;10653;47.052;15.410;2023-03-01T06:08:28;24.50;;;18.77;;
20988;SDS011;10653;47.052;15.410;2023-03-01T06:10:54;24.77;;;19.15;;
20988;SDS011;10653;47.052;15.410;2023-03-01T06:13:21;23.58;;;18.27;;
20988;SDS011;10653;47.052;15.410;2023-03-01T06:15:48;21.45;;;18.92;;
20988;SDS011;10653;47.052;15.410;2023-03-01T06:18:14;24.02;;;18.45;;
20988;SDS011;10653;47.052;15.410;2023-03-01T06:20:40;24.10;;;18.88;;
20988;SDS011;10653;47.052;15.410;2023-03-01T06:23:07;25.02;;;18.67;;
20988;SDS011;10653;47.052;15.410;2023-03-01T06:25:33;23.38;;;19.10;;
20988;SDS011;10653;47.052;15.410;2023-03-01T06:27:59;25.67;;;19.20;;
20988;SDS011;10653;47.052;15.410;2023-03-01T06:30:25;22.98;;;17.75;;
20988;SDS011;10653;47.052;15.410;2023-03-01T06:32:52;21.42;;;18.08;;
20988;SDS011;10653;47.052;15.410;2023-03-01T06:35:26;20.98;;;18.60;;
20988;SDS011;10653;47.052;15.410;2023-03-01T06:37:55;26.52;;;19.63;;
20988;SDS011;10653;47.052;15.410;2023-03-01T06:40:21;21.85;;;19.20;;
20988;SDS011;10653;47.052;15.410;2023-03-01T06:42:48;27.27;;;21.40;;
20988;SDS011;10653;47.052;15.410;2023-03-01T06:45:15;21.38;;;18.80;;
20988;SDS011;10653;47.052;15.410;2023-03-01T06:47:41;31.30;;;22.42;;
20988;SDS011;10653;47.052;15.410;2023-03-01T06:50:07;26.65;;;21.73;;
20988;SDS011;10653;47.052;15.410;2023-03-01T06:52:33;31.00;;;21.95;;
20988;SDS011;10653;47.052;15.410;2023-03-01T06:54:59;28.25;;;21.02;;
20988;SDS011;10653;47.052;15.410;2023-03-01T06:57:26;26.33;;;19.27;;
20988;SDS011;10653;47.052;15.410;2023-03-01T06:59:52;28.40;;;18.25;;
20988;SDS011;10653;47.052;15.410;2023-03-01T07:02:18;21.58;;;17.23;;
20988;SDS011;10653;47.052;15.410;2023-03-01T07:04:44;25.88;;;18.88;;
20988;SDS011;10653;47.052;15.410;2023-03-01T07:07:10;23.85;;;18.15;;
20988;SDS011;10653;47.052;15.410;2023-03-01T07:09:36;24.85;;;18.40;;
20988;SDS011;10653;47.052;15.410;2023-03-01T07:12:02;23.52;;;18.05;;
20988;SDS011;10653;47.052;15.410;2023-03-01T07:14:28;25.90;;;19.17;;
20988;SDS011;10653;47.052;15.410;2023-03-01T07:16:55;23.85;;;18.60;;
20988;SDS011;10653;47.052;15.410;2023-03-01T07:19:21;24.30;;;18.73;;
20988;SDS011;10653;47.052;15.410;2023-03-01T07:21:47;24.17;;;18.90;;
20988;SDS011;10653;47.052;15.410;2023-03-01T07:24:14;22.48;;;18.38;;
20988;SDS011;10653;47.052;15.410;2023-03-01T07:26:40;23.45;;;18.63;;
20988;SDS011;10653;47.052;15.410;2023-03-01T07:29:06;22.83;;;17.90;;
20988;SDS011;10653;47.052;15.410;2023-03-01T07:31:33;22.15;;;18.27;;
20988;SDS011;10653;47.052;15.410;2023-03-01T07:33:59;23.95;;;18.85;;
20988;SDS011;10653;47.052;15.410;2023-03-01T07:36:25;28.58;;;19.50;;
20988;SDS011;10653;47.052;15.410;2023-03-01T07:38:51;20.45;;;17.40;;
20988;SDS011;10653;47.052;15.410;2023-03-01T07:41:17;25.48;;;19.55;;
20988;SDS011;10653;47.052;15.410;2023-03-01T07:43:43;21.90;;;18.98;;
20988;SDS011;10653;47.052;15.410;2023-03-01T07:46:09;22.30;;;17.90;;
20988;SDS011;10653;47.052;15.410;2023-03-01T07:48:35;24.95;;;17.20;;
20988;SDS011;10653;47.052;15.410;2023-03-01T07:51:02;19.77;;;17.30;;
20988;SDS011;10653;47.052;15.410;2023-03-01T07:53:28;26.13;;;17.63;;
20988;SDS011;10653;47.052;15.410;2023-03-01T07:58:28;21.17;;;16.30;;
20988;SDS011;10653;47.052;15.410;2023-03-01T08:00:54;20.92;;;15.88;;
20988;SDS011;10653;47.052;15.410;2023-03-01T08:03:20;19.95;;;15.57;;
20988;SDS011;10653;47.052;15.410;2023-03-01T08:05:46;20.85;;;15.68;;
20988;SDS011;10653;47.052;15.410;2023-03-01T08:08:12;19.17;;;15.77;;
20988;SDS011;10653;47.052;15.410;2023-03-01T08:10:38;19.17;;;14.32;;
20988;SDS011;10653;47.052;15.410;2023-03-01T08:13:04;20.67;;;15.32;;
20988;SDS011;10653;47.052;15.410;2023-03-01T08:15:30;20.27;;;16.10;;
20988;SDS011;10653;47.052;15.410;2023-03-01T08:17:56;17.77;;;15.30;;
20988;SDS011;10653;47.052;15.410;2023-03-01T08:20:22;20.50;;;16.23;;
20988;SDS011;10653;47.052;15.410;2023-03-01T08:22:48;16.20;;;14.13;;
20988;SDS011;10653;47.052;15.410;2023-03-01T08:25:14;17.85;;;15.13;;
20988;SDS011;10653;47.052;15.410;2023-03-01T08:27:40;22.77;;;16.65;;
20988;SDS011;10653;47.052;15.410;2023-03-01T08:30:06;17.25;;;15.38;;
20988;SDS011;10653;47.052;15.410;2023-03-01T08:32:36;23.48;;;16.98;;
20988;SDS011;10653;47.052;15.410;2023-03-01T08:35:03;19.55;;;15.60;;
20988;SDS011;10653;47.052;15.410;2023-03-01T08:37:29;21.75;;;16.50;;
20988;SDS011;10653;47.052;15.410;2023-03-01T08:39:57;17.90;;;15.80;;
20988;SDS011;10653;47.052;15.410;2023-03-01T08:42:23;17.45;;;15.40;;
20988;SDS011;10653;47.052;15.410;2023-03-01T08:44:49;20.00;;;15.98;;
20988;SDS011;10653;47.052;15.410;2023-03-01T08:47:15;20.60;;;16.38;;
20988;SDS011;10653;47.052;15.410;2023-03-01T08:49:41;17.45;;;15.30;;
20988;SDS011;10653;47.052;15.410;2023-03-01T08:52:07;21.52;;;16.08;;
20988;SDS011;10653;47.052;15.410;2023-03-01T08:54:33;16.45;;;14.43;;
20988;SDS011;10653;47.052;15.410;2023-03-01T08:57:03;19.88;;;14.68;;
20988;SDS011;10653;47.052;15.410;2023-03-01T08:59:29;19.15;;;15.35;;
20988;SDS011;10653;47.052;15.410;2023-03-01T09:01:55;17.42;;;14.52;;
20988;SDS011;10653;47.052;15.410;2023-03-01T09:04:21;18.77;;;14.68;;
20988;SDS011;10653;47.052;15.410;2023-03-01T09:06:47;16.83;;;14.63;;
20988;SDS011;10653;47.052;15.410;2023-03-01T09:09:14;21.52;;;14.68;;
20988;SDS011;10653;47.052;15.410;2023-03-01T09:11:41;16.95;;;14.20;;
20988;SDS011;10653;47.052;15.410;2023-03-01T09:14:08;17.10;;;14.18;;
20988;SDS011;10653;47.052;15.410;2023-03-01T09:16:34;17.67;;;13.60;;
20988;SDS011;10653;47.052;15.410;2023-03-01T09:19:01;16.13;;;14.25;;
20988;SDS011;10653;47.052;15.410;2023-03-01T09:21:27;20.90;;;15.50;;
20988;SDS011;10653;47.052;15.410;2023-03-01T09:23:55;19.13;;;14.00;;
20988;SDS011;10653;47.052;15.410;2023-03-01T09:26:21;17.60;;;15.13;;
20988;SDS011;10653;47.052;15.410;2023-03-01T09:28:48;21.77;;;14.57;;
20988;SDS011;10653;47.052;15.410;2023-03-01T09:31:15;16.65;;;14.07;;
20988;SDS011;10653;47.052;15.410;2023-03-01T09:33:42;19.95;;;13.60;;
20988;SDS011;10653;47.052;15.410;2023-03-01T09:36:11;17.33;;;13.25;;
20988;SDS011;10653;47.052;15.410;2023-03-01T09:38:37;20.63;;;15.00;;
20988;SDS011;10653;47.052;15.410;2023-03-01T09:41:08;20.15;;;14.15;;
20988;SDS011;10653;47.052;15.410;2023-03-01T09:46:08;23.38;;;15.30;;
20988;SDS011;10653;47.052;15.410;2023-03-01T09:48:41;18.33;;;15.27;;
20988;SDS011;10653;47.052;15.410;2023-03-01T09:51:09;17.90;;;14.25;;
20988;SDS011;10653;47.052;15.410;2023-03-01T09:53:38;16.33;;;14.13;;
20988;SDS011;10653;47.052;15.410;2023-03-01T09:56:05;18.52;;;14.65;;
20988;SDS011;10653;47.052;15.410;2023-03-01T10:03:49;17.58;;;14.80;;
20988;SDS011;10653;47.052;15.410;2023-03-01T10:06:21;18.35;;;14.98;;
20988;SDS011;10653;47.052;15.410;2023-03-01T10:11:35;15.25;;;13.35;;
20988;SDS011;10653;47.052;15.410;2023-03-01T10:16:32;19.90;;;15.37;;
20988;SDS011;10653;47.052;15.410;2023-03-01T10:19:00;18.42;;;14.40;;
20988;SDS011;10653;47.052;15.410;2023-03-01T10:21:27;17.52;;;14.30;;
20988;SDS011;10653;47.052;15.410;2023-03-01T10:23:57;21.13;;;15.25;;
20988;SDS011;10653;47.052;15.410;2023-03-01T10:29:04;19.63;;;15.35;;
20988;SDS011;10653;47.052;15.410;2023-03-01T10:31:51;16.55;;;13.25;;
20988;SDS011;10653;47.052;15.410;2023-03-01T10:34:28;17.98;;;14.05;;
20988;SDS011;10653;47.052;15.410;2023-03-01T10:37:04;18.23;;;14.25;;
20988;SDS011;10653;47.052;15.410;2023-03-01T10:39:34;18.58;;;14.90;;
20988;SDS011;10653;47.052;15.410;2023-03-01T10:42:04;21.60;;;13.77;;
20988;SDS011;10653;47.052;15.410;2023-03-01T10:44:37;19.42;;;14.15;;
20988;SDS011;10653;47.052;15.410;2023-03-01T10:47:04;20.60;;;14.10;;
20988;SDS011;10653;47.052;15.410;2023-03-01T10:49:30;20.17;;;13.52;;
20988;SDS011;10653;47.052;15.410;2023-03-01T10:51:56;20.15;;;13.80;;
20988;SDS011;10653;47.052;15.410;2023-03-01T10:54:36;17.60;;;13.95;;
20988;SDS011;10653;47.052;15.410;2023-03-01T10:57:05;22.02;;;15.18;;
20988;SDS011;10653;47.052;15.410;2023-03-01T10:59:32;20.27;;;15.45;;
20988;SDS011;10653;47.052;15.410;2023-03-01T11:04:27;21.27;;;16.90;;
20988;SDS011;10653;47.052;15.410;2023-03-01T11:07:00;22.55;;;15.57;;
20988;SDS011;10653;47.052;15.410;2023-03-01T11:09:26;20.33;;;14.82;;
20988;SDS011;10653;47.052;15.410;2023-03-01T11:12:02;22.67;;;16.83;;
20988;SDS011;10653;47.052;15.410;2023-03-01T11:14:37;18.75;;;15.02;;
20988;SDS011;10653;47.052;15.410;2023-03-01T11:17:11;21.65;;;15.63;;
20988;SDS011;10653;47.052;15.410;2023-03-01T11:19:38;22.77;;;15.80;;
20988;SDS011;10653;47.052;15.410;2023-03-01T11:27:35;19.80;;;16.15;;
20988;SDS011;10653;47.052;15.410;2023-03-01T11:32:32;19.55;;;15.32;;
20988;SDS011;10653;47.052;15.410;2023-03-01T11:35:02;18.75;;;14.35;;
20988;SDS011;10653;47.052;15.410;2023-03-01T11:37:32;18.85;;;14.40;;
20988;SDS011;10653;47.052;15.410;2023-03-01T11:40:05;22.77;;;15.77;;
20988;SDS011;10653;47.052;15.410;2023-03-01T11:42:52;21.15;;;14.63;;
20988;SDS011;10653;47.052;15.410;2023-03-01T11:45:22;20.42;;;16.13;;
20988;SDS011;10653;47.052;15.410;2023-03-01T11:47:55;18.67;;;15.20;;
20988;SDS011;10653;47.052;15.410;2023-03-01T11:50:35;19.85;;;15.57;;
20988;SDS011;10653;47.052;15.410;2023-03-01T11:58:23;25.17;;;14.85;;
20988;SDS011;10653;47.052;15.410;2023-03-01T12:00:58;17.90;;;14.15;;
20988;SDS011;10653;47.052;15.410;2023-03-01T12:04:18;19.00;;;14.10;;
20988;SDS011;10653;47.052;15.410;2023-03-01T12:22:10;18.25;;;15.77;;
20988;SDS011;10653;47.052;15.410;2023-03-01T12:29:51;24.60;;;14.82;;
20988;SDS011;10653;47.052;15.410;2023-03-01T12:50:51;17.90;;;12.70;;
20988;SDS011;10653;47.052;15.410;2023-03-01T12:55:50;15.07;;;12.10;;
20988;SDS011;10653;47.052;15.410;2023-03-01T13:00:51;17.93;;;13.50;;
20988;SDS011;10653;47.052;15.410;2023-03-01T13:08:44;16.70;;;12.50;;
20988;SDS011;10653;47.052;15.410;2023-03-01T13:11:17;14.73;;;11.80;;
20988;SDS011;10653;47.052;15.410;2023-03-01T13:13:45;15.30;;;12.07;;
20988;SDS011;10653;47.052;15.410;2023-03-01T13:21:33;16.23;;;11.70;;
20988;SDS011;10653;47.052;15.410;2023-03-01T13:23:59;14.60;;;11.40;;
20988;SDS011;10653;47.052;15.410;2023-03-01T13:26:25;13.67;;;11.03;;
20988;SDS011;10653;47.052;15.410;2023-03-01T13:28:52;18.10;;;11.90;;
20988;SDS011;10653;47.052;15.410;2023-03-01T13:33:53;13.10;;;9.93;;
20988;SDS011;10653;47.052;15.410;2023-03-01T13:42:25;13.13;;;9.30;;
20988;SDS011;10653;47.052;15.410;2023-03-01T13:46:50;14.07;;;9.73;;
20988;SDS011;10653;47.052;15.410;2023-03-01T13:49:21;14.93;;;9.50;;
20988;SDS011;10653;47.052;15.410;2023-03-01T13:51:50;9.13;;;7.60;;
20988;SDS011;10653;47.052;15.410;2023-03-01T13:54:21;13.97;;;9.10;;
20988;SDS011;10653;47.052;15.410;2023-03-01T13:56:49;10.03;;;8.53;;
20988;SDS011;10653;47.052;15.410;2023-03-01T13:59:16;11.40;;;9.50;;
20988;SDS011;10653;47.052;15.410;2023-03-01T14:01:42;12.27;;;8.67;;
20988;SDS011;10653;47.052;15.410;2023-03-01T14:06:46;15.17;;;10.87;;
20988;SDS011;10653;47.052;15.410;2023-03-01T14:19:28;14.27;;;10.33;;
20988;SDS011;10653;47.052;15.410;2023-03-01T14:22:04;13.43;;;10.57;;
20988;SDS011;10653;47.052;15.410;2023-03-01T14:24:39;14.57;;;11.13;;
20988;SDS011;10653;47.052;15.410;2023-03-01T14:27:12;17.23;;;11.47;;
20988;SDS011;10653;47.052;15.410;2023-03-01T14:29:39;14.40;;;9.83;;
20988;SDS011;10653;47.052;15.410;2023-03-01T14:32:12;16.63;;;11.50;;
20988;SDS011;10653;47.052;15.410;2023-03-01T14:34:42;14.83;;;10.10;;
20988;SDS011;10653;47.052;15.410;2023-03-01T14:37:20;14.93;;;10.43;;
20988;SDS011;10653;47.052;15.410;2023-03-01T14:39:46;15.60;;;10.50;;
20988;SDS011;10653;47.052;15.410;2023-03-01T14:42:12;15.13;;;11.60;;
20988;SDS011;10653;47.052;15.410;2023-03-01T14:44:40;18.30;;;11.27;;
20988;SDS011;10653;47.052;15.410;2023-03-01T14:47:10;17.73;;;11.47;;
20988;SDS011;10653;47.052;15.410;2023-03-01T14:49:38;17.70;;;10.40;;
20988;SDS011;10653;47.052;15.410;2023-03-01T14:52:06;15.57;;;11.07;;
20988;SDS011;10653;47.052;15.410;2023-03-01T14:57:14;14.97;;;10.83;;
20988;SDS011;10653;47.052;15.410;2023-03-01T14:59:40;12.17;;;9.70;;
20988;SDS011;10653;47.052;15.410;2023-03-01T15:02:08;14.40;;;11.23;;
20988;SDS011;10653;47.052;15.410;2023-03-01T15:04:41;15.63;;;11.33;;
20988;SDS011;10653;47.052;15.410;2023-03-01T15:07:09;16.17;;;10.27;;
20988;SDS011;10653;47.052;15.410;2023-03-01T15:09:38;16.90;;;11.60;;
20988;SDS011;10653;47.052;15.410;2023-03-01T15:12:24;15.53;;;10.83;;
20988;SDS011;10653;47.052;15.410;2023-03-01T15:14:50;14.30;;;10.90;;
20988;SDS011;10653;47.052;15.410;2023-03-01T15:17:36;15.60;;;10.70;;
20988;SDS011;10653;47.052;15.410;2023-03-01T15:20:13;16.23;;;10.83;;
20988;SDS011;10653;47.052;15.410;2023-03-01T15:22:43;14.50;;;9.80;;
20988;SDS011;10653;47.052;15.410;2023-03-01T15:25:16;13.13;;;10.00;;
20988;SDS011;10653;47.052;15.410;2023-03-01T15:27:47;21.00;;;13.80;;
20988;SDS011;10653;47.052;15.410;2023-03-01T15:30:23;21.00;;;14.37;;
20988;SDS011;10653;47.052;15.410;2023-03-01T15:33:16;18.33;;;11.60;;
20988;SDS011;10653;47.052;15.410;2023-03-01T15:35:44;14.80;;;10.70;;
20988;SDS011;10653;47.052;15.410;2023-03-01T15:40:55;15.70;;;11.07;;
20988;SDS011;10653;47.052;15.410;2023-03-01T15:46:12;14.93;;;10.23;;
20988;SDS011;10653;47.052;15.410;2023-03-01T15:48:44;17.70;;;11.40;;
20988;SDS011;10653;47.052;15.410;2023-03-01T15:51:10;16.57;;;11.97;;
20988;SDS011;10653;47.052;15.410;2023-03-01T15:53:39;15.00;;;11.80;;
20988;SDS011;10653;47.052;15.410;2023-03-01T15:56:05;15.20;;;11.90;;
20988;SDS011;10653;47.052;15.410;2023-03-01T15:58:33;14.33;;;12.30;;
20988;SDS011;10653;47.052;15.410;2023-03-01T16:00:59;18.10;;;12.03;;
20988;SDS011;10653;47.052;15.410;2023-03-01T16:03:25;17.70;;;12.10;;
20988;SDS011;10653;47.052;15.410;2023-03-01T16:05:51;18.27;;;14.20;;
20988;SDS011;10653;47.052;15.410;2023-03-01T16:08:18;20.10;;;14.43;;
20988;SDS011;10653;47.052;15.410;2023-03-01T16:10:45;14.87;;;12.83;;
20988;SDS011;10653;47.052;15.410;2023-03-01T16:13:13;14.67;;;11.90;;
20988;SDS011;10653;47.052;15.410;2023-03-01T16:15:39;16.50;;;11.60;;
20988;SDS011;10653;47.052;15.410;2023-03-01T16:18:05;16.60;;;12.17;;
20988;SDS011;10653;47.052;15.410;2023-03-01T16:20:33;15.13;;;11.47;;
20988;SDS011;10653;47.052;15.410;2023-03-01T16:22:59;16.73;;;11.97;;
20988;SDS011;10653;47.052;15.410;2023-03-01T16:25:26;16.67;;;11.80;;
20988;SDS011;10653;47.052;15.410;2023-03-01T16:27:52;18.03;;;13.50;;